Time;durP1;ratioP1;P1;durP2;ratioP2;P2;SDS_P1;SDS_P2;PMS_P1;PMS_P2;Temp;Humidity;BMP_temperature;BMP_pressure;BME280_temperature;BME280_humidity;BME280_pressure;Samples;Min_cycle;Max_cycle;Signal;HPM_P1;HPM_P2
2022/04/04 00:02:09;;;;;;;0.50;0.10;;;4.60;99.90;;;;;;5049642;28;20546;-72
2022/04/04 00:04:37;;;;;;;0.50;0.10;;;4.60;99.90;;;;;;5049579;28;20983;-73
2022/04/04 00:07:07;;;;;;;0.50;0.10;;;4.60;99.90;;;;;;5050984;28;20541;-73
2022/04/04 00:09:35;;;;;;;0.50;0.10;;;4.60;99.90;;;;;;5053351;28;20446;-73
2022/04/04 00:12:03;;;;;;;0.50;0.10;;;4.50;99.90;;;;;;5072221;28;20479;-73
2022/04/04 00:14:31;;;;;;;0.50;0.10;;;4.60;99.90;;;;;;5072864;28;20450;-71
2022/04/04 00:17:00;;;;;;;0.50;0.10;;;4.60;99.90;;;;;;5075466;28;20507;-73
2022/04/04 00:19:28;;;;;;;0.50;0.10;;;4.50;99.90;;;;;;5071358;28;20971;-71
2022/04/04 00:21:57;;;;;;;0.70;0.50;;;4.50;99.90;;;;;;5054057;28;20841;-73
2022/04/04 00:24:27;;;;;;;0.50;0.10;;;4.40;99.90;;;;;;5055411;28;21036;-73
2022/04/04 00:26:55;;;;;;;0.50;0.10;;;4.40;99.90;;;;;;5076978;28;20456;-73
2022/04/04 00:29:23;;;;;;;0.50;0.10;;;4.30;99.90;;;;;;5072727;28;20444;-72
2022/04/04 00:31:51;;;;;;;1.17;1.07;;;;;;;;;;5071570;28;20475;-72
2022/04/04 00:34:19;;;;;;;0.60;0.47;;;4.20;99.90;;;;;;5073517;28;20443;-72
2022/04/04 00:36:47;;;;;;;0.50;0.10;;;4.10;99.90;;;;;;5074140;28;20921;-73
2022/04/04 00:39:15;;;;;;;0.50;0.10;;;4.00;99.90;;;;;;5076337;28;20477;-73
2022/04/04 00:41:45;;;;;;;0.60;0.10;;;;;;;;;;5081667;28;20918;-73
2022/04/04 00:44:13;;;;;;;0.60;0.30;;;4.00;99.90;;;;;;5080220;28;20516;-72
2022/04/04 00:46:42;;;;;;;1.60;1.50;;;3.90;99.90;;;;;;5089181;28;20451;-73
2022/04/04 00:49:11;;;;;;;0.50;0.10;;;3.80;99.90;;;;;;5094525;28;20438;-73
2022/04/04 00:51:39;;;;;;;0.50;0.10;;;3.80;99.90;;;;;;5094458;28;20536;-73
2022/04/04 00:54:08;;;;;;;0.50;0.10;;;3.80;99.90;;;;;;5095033;28;20450;-72
2022/04/04 00:56:37;;;;;;;0.50;0.10;;;3.80;99.90;;;;;;5087540;28;20482;-71
2022/04/04 00:59:07;;;;;;;0.50;0.10;;;3.80;99.90;;;;;;5075883;28;20477;-71
2022/04/04 01:01:35;;;;;;;3.07;2.37;;;3.80;99.90;;;;;;5075265;28;20458;-74
2022/04/04 01:04:03;;;;;;;0.60;0.10;;;3.80;99.90;;;;;;5074824;28;20438;-74
2022/04/04 01:06:31;;;;;;;0.80;0.80;;;3.90;99.90;;;;;;5080585;28;20489;-74
2022/04/04 01:08:59;;;;;;;0.50;0.10;;;3.80;99.90;;;;;;5096215;28;20448;-73
2022/04/04 01:11:27;;;;;;;0.50;0.20;;;3.70;99.90;;;;;;5095936;28;20488;-72
2022/04/04 01:13:55;;;;;;;0.50;0.10;;;3.60;99.90;;;;;;5096181;28;20516;-74
2022/04/04 01:16:25;;;;;;;0.50;0.10;;;3.60;99.90;;;;;;5089026;28;20446;-74
2022/04/04 01:18:53;;;;;;;0.57;0.10;;;;;;;;;;5089391;28;20509;-74
2022/04/04 01:21:21;;;;;;;0.50;0.10;;;3.50;99.90;;;;;;5094541;28;20466;-72
2022/04/04 01:23:50;;;;;;;0.87;0.87;;;3.40;99.90;;;;;;5094851;28;20834;-71
2022/04/04 01:26:21;;;;;;;0.70;0.30;;;3.30;99.90;;;;;;5093842;28;20449;-72
2022/04/04 01:28:48;;;;;;;0.50;0.10;;;3.20;99.90;;;;;;5094203;28;20441;-71
2022/04/04 01:31:16;;;;;;;0.50;0.10;;;3.20;99.90;;;;;;5094461;28;20465;-72
2022/04/04 01:33:44;;;;;;;0.60;0.10;;;3.20;99.90;;;;;;5094328;28;20906;-73
2022/04/04 01:36:12;;;;;;;0.50;0.10;;;;;;;;;;5092585;28;20472;-74
2022/04/04 01:38:40;;;;;;;0.50;0.20;;;3.20;99.90;;;;;;5089056;28;20563;-74
2022/04/04 01:41:08;;;;;;;1.17;1.07;;;3.20;99.90;;;;;;5095384;28;20986;-74
2022/04/04 01:43:37;;;;;;;0.50;0.10;;;3.20;99.90;;;;;;5095138;28;20452;-71
2022/04/04 01:48:51;;;;;;;0.50;0.10;;;3.30;99.90;;;;;;5094410;28;20446;-73
2022/04/04 01:51:19;;;;;;;0.50;0.10;;;3.30;99.90;;;;;;5095834;28;20463;-73
2022/04/04 01:53:47;;;;;;;0.50;0.10;;;3.30;99.90;;;;;;5095109;28;20539;-73
2022/04/04 01:56:16;;;;;;;0.50;0.10;;;3.30;99.90;;;;;;5094637;28;20536;-73
2022/04/04 01:58:45;;;;;;;0.50;0.10;;;3.30;99.90;;;;;;5092694;28;20477;-73
2022/04/04 02:01:16;;;;;;;0.50;0.10;;;3.30;99.90;;;;;;5092602;28;20820;-73
2022/04/04 02:03:47;;;;;;;0.53;0.10;;;3.30;99.90;;;;;;5093598;28;20444;-74
2022/04/04 02:06:15;;;;;;;0.50;0.10;;;3.40;99.90;;;;;;5091306;28;20797;-73
2022/04/04 02:08:43;;;;;;;0.60;0.30;;;3.40;99.90;;;;;;5093659;28;20547;-73
2022/04/04 02:11:12;;;;;;;0.50;0.10;;;3.40;99.90;;;;;;5094160;28;20457;-71
2022/04/04 02:13:40;;;;;;;0.50;0.10;;;3.30;99.90;;;;;;5093967;28;20455;-73
2022/04/04 02:16:10;;;;;;;0.50;0.10;;;3.40;99.90;;;;;;5092756;28;20445;-73
2022/04/04 02:18:38;;;;;;;0.50;0.10;;;3.40;99.90;;;;;;5093388;28;20451;-72
2022/04/04 02:21:07;;;;;;;0.50;0.10;;;3.30;99.90;;;;;;5093741;28;20482;-72
2022/04/04 02:23:35;;;;;;;1.03;0.87;;;3.30;99.90;;;;;;5093725;28;20541;-72
2022/04/04 02:26:03;;;;;;;0.50;0.10;;;3.30;99.90;;;;;;5094038;28;20436;-71
2022/04/04 02:28:32;;;;;;;0.50;0.10;;;3.20;99.90;;;;;;5079458;28;20450;-73
2022/04/04 02:31:00;;;;;;;0.60;0.33;;;3.10;1.00;;;;;;5080768;28;20482;-73
2022/04/04 02:33:30;;;;;;;0.50;0.10;;;;;;;;;;5080410;28;21012;-73
2022/04/04 02:35:58;;;;;;;0.50;0.10;;;3.10;1.00;;;;;;5073649;28;20454;-74
2022/04/04 02:38:28;;;;;;;4.20;2.73;;;3.10;1.00;;;;;;5072076;28;20979;-73
2022/04/04 02:40:58;;;;;;;0.90;0.60;;;3.10;1.00;;;;;;5072342;28;20481;-71
2022/04/04 02:43:26;;;;;;;1.37;1.27;;;3.10;1.00;;;;;;5072594;28;20544;-73
2022/04/04 02:45:55;;;;;;;0.50;0.10;;;3.10;1.00;;;;;;5073223;28;20496;-73
2022/04/04 02:48:23;;;;;;;0.50;0.20;;;3.10;1.00;;;;;;5076035;28;20453;-73
2022/04/04 02:50:53;;;;;;;0.53;0.10;;;3.00;1.00;;;;;;5076654;28;20461;-72
2022/04/04 02:53:21;;;;;;;5.60;0.97;;;3.00;1.00;;;;;;5075839;28;21024;-70
2022/04/04 02:58:36;;;;;;;0.50;0.20;;;2.90;1.00;;;;;;5072748;28;20485;-72
2022/04/04 03:01:04;;;;;;;0.50;0.10;;;2.70;1.00;;;;;;5072250;28;20495;-72
2022/04/04 03:03:32;;;;;;;1.13;1.03;;;2.60;1.00;;;;;;5073405;28;20474;-73
2022/04/04 03:06:02;;;;;;;1.07;0.97;;;;;;;;;;5072221;28;20457;-73
2022/04/04 03:08:30;;;;;;;1.70;1.23;;;2.50;1.00;;;;;;5092349;28;21030;-72
2022/04/04 03:10:58;;;;;;;0.50;0.10;;;2.40;1.00;;;;;;5076404;28;20504;-72
2022/04/04 03:13:25;;;;;;;2.70;2.60;;;2.40;1.00;;;;;;5083298;28;20482;-73
2022/04/04 03:15:54;;;;;;;0.60;0.30;;;;;;;;;;5092413;28;20796;-73
2022/04/04 03:18:22;;;;;;;0.83;0.77;;;2.40;1.00;;;;;;5092175;28;20453;-74
2022/04/04 03:20:51;;;;;;;0.50;0.10;;;2.30;1.00;;;;;;5078546;28;20603;-72
2022/04/04 03:23:22;;;;;;;0.50;0.27;;;2.30;1.00;;;;;;5072470;28;20532;-73
2022/04/04 03:25:50;;;;;;;0.50;0.20;;;2.30;1.00;;;;;;5080508;28;20531;-73
2022/04/04 03:28:18;;;;;;;0.50;0.10;;;2.30;1.00;;;;;;5091966;28;20814;-73
2022/04/04 03:30:47;;;;;;;4.30;1.40;;;2.40;1.00;;;;;;5090865;28;20464;-73
2022/04/04 03:33:15;;;;;;;0.50;0.10;;;2.40;1.00;;;;;;5091741;28;20567;-73
2022/04/04 03:35:45;;;;;;;1.93;1.80;;;2.40;1.00;;;;;;5091700;28;20445;-74
2022/04/04 03:38:13;;;;;;;0.50;0.20;;;2.40;1.00;;;;;;5092411;28;20449;-72
2022/04/04 03:40:44;;;;;;;2.53;2.33;;;2.30;1.00;;;;;;5091917;28;20488;-73
2022/04/04 03:43:13;;;;;;;0.90;0.73;;;2.30;1.00;;;;;;5092639;28;20851;-73
2022/04/04 03:45:41;;;;;;;0.50;0.10;;;2.30;1.00;;;;;;5095665;28;20480;-73
2022/04/04 03:48:09;;;;;;;0.50;0.20;;;2.20;1.00;;;;;;5093293;28;20453;-73
2022/04/04 03:50:38;;;;;;;0.60;0.40;;;2.20;1.00;;;;;;5080367;28;20968;-73
2022/04/04 03:53:06;;;;;;;0.50;0.10;;;2.20;1.00;;;;;;5071844;28;20452;-74
2022/04/04 03:55:37;;;;;;;0.63;0.37;;;2.20;1.00;;;;;;5071458;28;20457;-72
2022/04/04 03:58:08;;;;;;;0.50;0.10;;;2.30;1.00;;;;;;5071531;28;20963;-72
2022/04/04 04:00:36;;;;;;;0.60;0.30;;;2.20;1.00;;;;;;5092238;28;20480;-73
2022/04/04 04:03:05;;;;;;;0.50;0.10;;;2.20;1.00;;;;;;5093809;28;20992;-72
2022/04/04 04:05:33;;;;;;;1.63;0.77;;;2.30;1.00;;;;;;5090806;28;20445;-73
2022/04/04 04:08:01;;;;;;;1.37;1.33;;;2.40;1.00;;;;;;5093126;28;20466;-73
2022/04/04 04:10:29;;;;;;;1.83;1.20;;;2.50;1.00;;;;;;5096307;28;20464;-72
2022/04/04 04:12:58;;;;;;;0.50;0.20;;;2.40;1.00;;;;;;5097196;28;20826;-73
2022/04/04 04:15:28;;;;;;;0.50;0.20;;;2.40;1.00;;;;;;5096678;28;20444;-72
2022/04/04 04:17:55;;;;;;;0.50;0.20;;;2.40;1.00;;;;;;5096603;28;20455;-73
2022/04/04 04:20:23;;;;;;;0.50;0.20;;;2.50;1.00;;;;;;5087032;28;21172;-72
2022/04/04 04:22:54;;;;;;;0.50;0.10;;;2.50;1.00;;;;;;5056434;23;20897;-75
2022/04/04 04:25:23;;;;;;;0.50;0.20;;;2.50;1.00;;;;;;5034578;28;20443;-76
2022/04/04 04:27:52;;;;;;;0.87;0.87;;;2.50;1.00;;;;;;5036244;28;20438;-76
2022/04/04 04:30:20;;;;;;;0.50;0.10;;;2.50;1.00;;;;;;5030577;28;20975;-76
2022/04/04 04:32:51;;;;;;;0.50;0.10;;;2.50;1.00;;;;;;5028087;28;20490;-77
2022/04/04 04:35:21;;;;;;;2.00;1.90;;;2.50;1.00;;;;;;5047701;28;20458;-76
2022/04/04 04:37:50;;;;;;;1.87;1.53;;;2.50;1.00;;;;;;5049383;28;20449;-75
2022/04/04 04:40:18;;;;;;;0.60;0.37;;;2.50;1.00;;;;;;5046809;28;20486;-76
2022/04/04 04:42:48;;;;;;;0.50;0.10;;;2.50;1.00;;;;;;5024138;28;20546;-76
2022/04/04 04:45:16;;;;;;;0.50;0.10;;;2.40;1.00;;;;;;5030367;28;20804;-76
2022/04/04 04:47:45;;;;;;;0.50;0.10;;;2.50;1.00;;;;;;5030259;28;20753;-75
2022/04/04 04:50:16;;;;;;;0.50;0.20;;;2.40;1.00;;;;;;5027488;28;20443;-77
2022/04/04 04:52:46;;;;;;;1.27;0.87;;;2.40;1.00;;;;;;5028313;28;20465;-76
2022/04/04 04:55:15;;;;;;;1.47;0.77;;;2.30;1.00;;;;;;5023374;28;20443;-76
2022/04/04 04:57:43;;;;;;;0.80;0.60;;;2.20;1.00;;;;;;5030451;28;20439;-75
2022/04/04 05:00:14;;;;;;;0.60;0.30;;;2.20;1.00;;;;;;5042486;28;20927;-77
2022/04/04 05:02:42;;;;;;;0.70;0.67;;;2.20;1.00;;;;;;5033764;28;20462;-75
2022/04/04 05:05:11;;;;;;;2.93;1.50;;;2.20;1.00;;;;;;5033440;28;20443;-75
2022/04/04 05:07:40;;;;;;;0.70;0.53;;;2.10;1.00;;;;;;5033323;28;20526;-75
2022/04/04 05:10:08;;;;;;;1.27;1.17;;;2.10;1.00;;;;;;5034945;28;20979;-76
2022/04/04 05:12:36;;;;;;;0.60;0.33;;;2.10;1.00;;;;;;5034405;28;20812;-75
2022/04/04 05:15:04;;;;;;;5.50;1.87;;;2.10;1.00;;;;;;5032760;28;20452;-76
2022/04/04 05:17:32;;;;;;;3.30;3.10;;;2.00;1.00;;;;;;5033922;28;20444;-74
2022/04/04 05:20:00;;;;;;;0.63;0.50;;;1.90;1.00;;;;;;5030353;28;20452;-75
2022/04/04 05:22:29;;;;;;;0.60;0.10;;;;;;;;;;5026798;28;20490;-77
2022/04/04 05:24:58;;;;;;;0.50;0.20;;;2.00;1.00;;;;;;5036801;28;20454;-76
2022/04/04 05:27:26;;;;;;;0.50;0.10;;;2.10;1.00;;;;;;5033847;28;20454;-76
2022/04/04 05:29:53;;;;;;;0.70;0.40;;;2.10;1.00;;;;;;5033910;28;20444;-75
2022/04/04 05:32:22;;;;;;;0.50;0.10;;;2.00;1.00;;;;;;5034697;28;20468;-77
2022/04/04 05:34:50;;;;;;;0.50;0.10;;;2.00;1.00;;;;;;5036593;28;20463;-76
2022/04/04 05:37:18;;;;;;;0.60;0.40;;;2.00;1.00;;;;;;5053683;28;20532;-76
2022/04/04 05:39:46;;;;;;;0.90;0.90;;;2.00;1.00;;;;;;5054392;28;20446;-76
2022/04/04 05:42:16;;;;;;;1.90;0.93;;;2.00;1.00;;;;;;5058731;28;20482;-75
2022/04/04 05:44:44;;;;;;;0.77;0.57;;;2.00;1.00;;;;;;5050905;28;20559;-76
2022/04/04 05:47:13;;;;;;;1.83;1.23;;;2.00;1.00;;;;;;5037949;28;20522;-76
2022/04/04 05:49:41;;;;;;;0.50;0.10;;;1.80;1.00;;;;;;5039920;28;20461;-75
2022/04/04 05:52:10;;;;;;;0.70;0.50;;;1.90;1.00;;;;;;5051989;28;20476;-76
2022/04/04 05:54:53;;;;;;;0.50;0.10;;;1.90;1.00;;;;;;5040650;28;20447;-75
2022/04/04 05:57:24;;;;;;;0.50;0.10;;;2.00;1.00;;;;;;5034512;28;20443;-76
2022/04/04 05:59:52;;;;;;;0.50;0.30;;;2.10;1.00;;;;;;5035027;28;20793;-76
2022/04/04 06:02:20;;;;;;;2.73;0.73;;;2.20;1.00;;;;;;5043502;28;20502;-75
2022/04/04 06:04:49;;;;;;;3.80;2.43;;;2.30;1.00;;;;;;5042407;28;20444;-77
2022/04/04 06:07:17;;;;;;;0.50;0.10;;;2.20;1.00;;;;;;5034465;28;20942;-75
2022/04/04 06:09:45;;;;;;;5.30;2.47;;;2.20;1.00;;;;;;5025847;28;20445;-75
2022/04/04 06:12:13;;;;;;;0.50;0.10;;;2.30;1.00;;;;;;5025776;28;20462;-76
2022/04/04 06:14:42;;;;;;;0.50;0.10;;;2.20;1.00;;;;;;5032738;28;20452;-76
2022/04/04 06:17:14;;;;;;;0.50;0.20;;;2.30;1.00;;;;;;5027783;28;20442;-76
2022/04/04 06:19:43;;;;;;;0.50;0.20;;;2.40;1.00;;;;;;5029615;28;20460;-76
2022/04/04 06:22:11;;;;;;;0.50;0.10;;;2.40;1.00;;;;;;5042946;28;20538;-74
2022/04/04 06:24:39;;;;;;;0.53;0.20;;;2.40;1.00;;;;;;5039500;28;20461;-76
2022/04/04 06:27:07;;;;;;;0.60;0.20;;;2.40;1.00;;;;;;5033777;28;20458;-76
2022/04/04 06:29:35;;;;;;;0.50;0.10;;;2.50;1.00;;;;;;5041176;28;20504;-76
2022/04/04 06:32:05;;;;;;;1.20;1.10;;;2.60;1.00;;;;;;5038352;28;20514;-76
2022/04/04 06:34:33;;;;;;;5.10;1.17;;;2.70;1.00;;;;;;5047612;28;20514;-76
2022/04/04 06:37:09;;;;;;;0.80;0.33;;;2.60;1.00;;;;;;5064847;28;20507;-76
2022/04/04 06:39:37;;;;;;;0.90;0.40;;;2.60;1.00;;;;;;5067242;28;20445;-76
2022/04/04 06:42:05;;;;;;;0.50;0.10;;;2.70;1.00;;;;;;5065935;28;20998;-76
2022/04/04 06:44:33;;;;;;;1.13;1.03;;;2.70;1.00;;;;;;5041054;28;20596;-76
2022/04/04 06:47:01;;;;;;;0.60;0.10;;;2.70;1.00;;;;;;5046650;28;20436;-74
2022/04/04 06:49:31;;;;;;;0.50;0.10;;;2.70;1.00;;;;;;5036367;28;20500;-74
2022/04/04 06:51:58;;;;;;;1.83;1.73;;;2.70;1.00;;;;;;5025371;28;20461;-78
2022/04/04 06:54:27;;;;;;;1.20;0.83;;;2.80;1.00;;;;;;5034723;28;20529;-74
2022/04/04 06:56:55;;;;;;;0.50;0.10;;;2.80;1.00;;;;;;5025046;28;20910;-75
2022/04/04 06:59:23;;;;;;;0.50;0.10;;;2.80;1.00;;;;;;5038190;28;20440;-75
2022/04/04 07:01:51;;;;;;;0.50;0.10;;;3.00;1.00;;;;;;5036471;28;20491;-76
2022/04/04 07:04:19;;;;;;;0.60;0.53;;;3.00;1.00;;;;;;5022726;28;20502;-76
2022/04/04 07:06:48;;;;;;;0.50;0.10;;;3.10;1.00;;;;;;5022233;28;20511;-73
2022/04/04 07:09:16;;;;;;;2.00;1.80;;;3.20;1.00;;;;;;5020145;28;20507;-75
2022/04/04 07:11:44;;;;;;;1.17;1.07;;;3.30;1.00;;;;;;5031945;28;20458;-75
2022/04/04 07:14:12;;;;;;;2.40;1.47;;;3.30;1.00;;;;;;5039671;28;20444;-77
2022/04/04 07:16:40;;;;;;;0.50;0.10;;;3.30;1.00;;;;;;5029800;28;20467;-75
2022/04/04 07:19:09;;;;;;;0.50;0.20;;;3.30;1.00;;;;;;5017782;28;20506;-75
2022/04/04 07:21:37;;;;;;;0.50;0.10;;;3.40;1.00;;;;;;5030805;28;20589;-75
2022/04/04 07:24:07;;;;;;;0.60;0.33;;;3.40;1.00;;;;;;5046904;28;20448;-77
2022/04/04 07:26:35;;;;;;;1.27;1.23;;;3.50;1.00;;;;;;5028858;28;20529;-76
2022/04/04 07:29:03;;;;;;;2.73;2.10;;;3.60;1.00;;;;;;5020574;28;20475;-76
2022/04/04 07:31:31;;;;;;;0.67;0.63;;;3.60;1.00;;;;;;5026419;28;20536;-76
2022/04/04 07:33:59;;;;;;;0.50;0.10;;;3.60;1.00;;;;;;5037941;28;20452;-75
2022/04/04 07:36:27;;;;;;;2.60;2.20;;;3.70;1.00;;;;;;5030025;28;20443;-74
2022/04/04 07:38:55;;;;;;;0.60;0.10;;;3.70;1.00;;;;;;5044541;28;20467;-77
2022/04/04 07:41:24;;;;;;;0.50;0.10;;;3.70;1.00;;;;;;5042758;28;20514;-76
2022/04/04 07:43:53;;;;;;;2.87;2.67;;;3.70;1.00;;;;;;5044504;28;20572;-75
2022/04/04 07:46:21;;;;;;;1.30;0.97;;;3.80;1.00;;;;;;5057451;28;20803;-76
2022/04/04 07:48:50;;;;;;;1.27;1.17;;;3.90;1.00;;;;;;5056649;28;20469;-76
2022/04/04 07:51:17;;;;;;;0.60;0.30;;;4.10;99.90;;;;;;5056364;28;20464;-78
2022/04/04 07:53:45;;;;;;;0.50;0.20;;;4.10;99.90;;;;;;5043551;28;20465;-77
2022/04/04 07:56:13;;;;;;;0.80;0.40;;;4.00;99.90;;;;;;5034254;28;20559;-76
2022/04/04 07:58:42;;;;;;;0.60;0.50;;;4.00;99.90;;;;;;5038573;28;20559;-76
2022/04/04 08:01:10;;;;;;;0.50;0.10;;;4.10;99.90;;;;;;5032150;28;20783;-77
2022/04/04 08:03:43;;;;;;;7.43;1.13;;;4.10;99.90;;;;;;5038795;28;20489;-77
2022/04/04 08:06:11;;;;;;;0.53;0.23;;;4.20;99.90;;;;;;5035664;28;20542;-75
2022/04/04 08:08:39;;;;;;;0.70;0.63;;;4.20;99.90;;;;;;5047719;28;20437;-76
2022/04/04 08:11:08;;;;;;;0.70;0.40;;;4.20;99.90;;;;;;5035977;28;20460;-76
2022/04/04 08:13:37;;;;;;;0.50;0.30;;;4.20;99.90;;;;;;5036929;28;21011;-76
2022/04/04 08:16:08;;;;;;;0.60;0.50;;;4.30;99.90;;;;;;5035137;28;20451;-75
2022/04/04 08:18:38;;;;;;;0.80;0.73;;;4.40;99.90;;;;;;5037452;28;20453;-78
2022/04/04 08:21:06;;;;;;;1.00;0.63;;;4.50;99.90;;;;;;5035567;28;20454;-79
2022/04/04 08:23:33;;;;;;;0.83;0.83;;;4.50;99.90;;;;;;5036573;28;20479;-77
2022/04/04 08:26:02;;;;;;;1.20;0.97;;;4.60;99.90;;;;;;5037312;28;20802;-76
2022/04/04 08:28:30;;;;;;;0.60;0.10;;;4.70;99.90;;;;;;5039916;28;20539;-77
2022/04/04 08:30:59;;;;;;;0.50;0.10;;;4.90;99.90;;;;;;5036092;28;20456;-76
2022/04/04 08:33:28;;;;;;;1.27;0.97;;;4.90;99.90;;;;;;5035227;28;20862;-75
2022/04/04 08:35:57;;;;;;;1.17;1.07;;;4.90;99.90;;;;;;5035713;28;20450;-76
2022/04/04 08:38:25;;;;;;;0.57;0.17;;;5.00;99.90;;;;;;5034700;28;20480;-76
2022/04/04 08:40:54;;;;;;;0.90;0.67;;;5.20;99.90;;;;;;5038434;28;20671;-75
2022/04/04 08:43:24;;;;;;;0.50;0.20;;;5.10;99.90;;;;;;5030446;28;20460;-76
2022/04/04 08:45:54;;;;;;;1.37;0.43;;;5.20;99.90;;;;;;5038946;28;20444;-77
2022/04/04 08:48:22;;;;;;;1.00;0.90;;;5.30;99.90;;;;;;5041977;28;20953;-75
2022/04/04 08:50:52;;;;;;;2.90;1.90;;;5.40;99.90;;;;;;5040651;28;20456;-75
2022/04/04 08:53:20;;;;;;;0.70;0.50;;;5.50;99.90;;;;;;5032881;28;20461;-75
2022/04/04 08:55:47;;;;;;;1.43;0.83;;;5.50;99.90;;;;;;5033476;28;20460;-76
2022/04/04 08:58:16;;;;;;;1.07;0.80;;;5.50;99.90;;;;;;5042289;28;20649;-76
2022/04/04 09:00:44;;;;;;;3.27;2.40;;;5.70;99.90;;;;;;5031201;28;20449;-76
2022/04/04 09:03:20;;;;;;;0.50;0.20;;;5.70;99.90;;;;;;5036947;28;20487;-76
2022/04/04 09:05:54;;;;;;;0.50;0.10;;;5.80;99.90;;;;;;5042138;28;20502;-73
2022/04/04 09:08:25;;;;;;;0.70;0.57;;;6.00;99.90;;;;;;5039703;28;20475;-75
2022/04/04 09:10:55;;;;;;;1.13;1.07;;;6.20;99.90;;;;;;5053840;28;20465;-74
2022/04/04 09:13:25;;;;;;;4.03;3.83;;;6.20;99.90;;;;;;5020263;28;20529;-76
2022/04/04 09:16:03;;;;;;;0.50;0.10;;;6.30;99.90;;;;;;5018100;28;20531;-76
2022/04/04 09:18:46;;;;;;;0.60;0.20;;;6.40;99.90;;;;;;5017041;28;20470;-75
2022/04/04 09:21:33;;;;;;;3.20;1.70;;;6.60;99.90;;;;;;5019050;28;20466;-75
2022/04/04 09:24:09;;;;;;;10.10;9.37;;;6.50;99.90;;;;;;5038626;28;21014;-76
2022/04/04 09:26:39;;;;;;;1.13;0.67;;;6.50;99.90;;;;;;5028829;28;20861;-75
2022/04/04 09:29:09;;;;;;;1.13;0.70;;;6.60;99.90;;;;;;5032574;28;20527;-75
2022/04/04 09:31:51;;;;;;;0.60;0.20;;;6.90;99.90;;;;;;5038469;28;20486;-74
2022/04/04 09:34:20;;;;;;;0.63;0.53;;;7.00;99.90;;;;;;5053915;28;20482;-76
2022/04/04 09:36:49;;;;;;;2.20;2.10;;;7.10;99.90;;;;;;5059098;28;20538;-76
2022/04/04 09:39:18;;;;;;;3.17;2.93;;;7.10;99.90;;;;;;5057680;28;20446;-75
2022/04/04 09:41:47;;;;;;;1.47;1.37;;;7.10;99.90;;;;;;5048832;28;20567;-75
2022/04/04 09:44:25;;;;;;;3.50;2.47;;;7.10;99.90;;;;;;5034835;28;20484;-75
2022/04/04 09:46:53;;;;;;;5.30;3.70;;;7.10;99.90;;;;;;5034049;28;20460;-75
2022/04/04 09:49:21;;;;;;;1.00;0.70;;;6.90;99.90;;;;;;5033434;28;20542;-76
2022/04/04 09:51:52;;;;;;;2.37;2.27;;;7.00;99.90;;;;;;5035644;28;20550;-76
2022/04/04 09:54:23;;;;;;;6.50;4.50;;;7.10;99.90;;;;;;5040549;28;20525;-75
2022/04/04 09:56:57;;;;;;;3.70;1.90;;;7.30;99.90;;;;;;5048057;28;20458;-76
2022/04/04 09:59:31;;;;;;;1.70;1.60;;;7.20;99.90;;;;;;5036181;28;20437;-75
2022/04/04 10:01:59;;;;;;;4.03;2.63;;;7.30;99.90;;;;;;5032856;28;20488;-77
2022/04/04 10:04:28;;;;;;;2.47;2.00;;;7.40;99.90;;;;;;5031062;28;20499;-78
2022/04/04 10:06:58;;;;;;;1.07;0.60;;;7.70;99.90;;;;;;5054763;28;20539;-75
2022/04/04 10:09:27;;;;;;;1.80;1.50;;;7.80;99.90;;;;;;5033473;28;20446;-75
2022/04/04 10:11:55;;;;;;;0.70;0.60;;;8.10;99.90;;;;;;5036267;28;20480;-74
2022/04/04 10:14:23;;;;;;;1.20;0.93;;;8.10;99.90;;;;;;5036863;28;20508;-75
2022/04/04 10:16:53;;;;;;;0.90;0.77;;;8.30;99.90;;;;;;5037249;28;20548;-76
2022/04/04 10:19:24;;;;;;;0.90;0.80;;;8.40;99.90;;;;;;5037501;28;20473;-74
2022/04/04 10:21:52;;;;;;;1.70;1.53;;;8.60;99.90;;;;;;5037862;28;20486;-76
2022/04/04 10:24:22;;;;;;;0.87;0.80;;;8.50;99.90;;;;;;5034239;28;20483;-75
2022/04/04 10:26:52;;;;;;;1.80;1.70;;;8.50;99.90;;;;;;5033362;28;20441;-77
2022/04/04 10:29:25;;;;;;;0.70;0.57;;;8.50;99.90;;;;;;5034059;28;20823;-75
2022/04/04 10:31:55;;;;;;;1.20;1.13;;;8.40;99.90;;;;;;5036217;28;20505;-76
2022/04/04 10:34:26;;;;;;;1.00;0.90;;;8.40;99.90;;;;;;5034301;28;20510;-77
2022/04/04 10:36:59;;;;;;;1.10;0.90;;;8.50;99.90;;;;;;5036611;28;20585;-77
2022/04/04 10:39:44;;;;;;;4.37;2.70;;;8.40;99.90;;;;;;5042603;28;20458;-76
2022/04/04 10:42:26;;;;;;;1.83;1.27;;;8.30;99.90;;;;;;5051652;28;20471;-78
2022/04/04 10:45:06;;;;;;;1.50;1.40;;;8.30;99.90;;;;;;5035056;28;20496;-77
2022/04/04 10:47:36;;;;;;;2.50;1.63;;;8.30;99.90;;;;;;5037971;28;20466;-79
2022/04/04 10:50:21;;;;;;;1.83;1.43;;;8.40;99.90;;;;;;5043441;28;20446;-76
2022/04/04 10:52:50;;;;;;;2.60;1.97;;;8.60;99.90;;;;;;5021830;28;20474;-75
2022/04/04 10:55:52;;;;;;;2.33;1.37;;;8.70;99.90;;;;;;5029282;28;20634;-77
2022/04/04 10:58:25;;;;;;;0.60;0.20;;;8.60;99.90;;;;;;5039201;28;20462;-77
2022/04/04 11:01:00;;;;;;;2.67;2.47;;;8.70;99.90;;;;;;5032361;28;20486;-76
2022/04/04 11:03:29;;;;;;;4.23;1.97;;;8.60;99.90;;;;;;5023200;28;20482;-76
2022/04/04 11:09:00;;;;;;;7.40;1.30;;;8.50;99.90;;;;;;5032688;28;20486;-77
2022/04/04 11:11:44;;;;;;;0.80;0.40;;;9.70;99.90;;;;;;5026362;28;20854;-75
2022/04/04 11:14:13;;;;;;;0.60;0.10;;;8.40;99.90;;;;;;5033372;28;20446;-75
2022/04/04 11:17:23;;;;;;;0.67;0.40;;;8.50;99.90;;;;;;5034066;28;20445;-76
2022/04/04 11:20:10;;;;;;;1.53;1.43;;;8.80;99.90;;;;;;5034352;28;20904;-77
2022/04/04 11:22:55;;;;;;;2.17;1.97;;;8.80;99.90;;;;;;5036052;28;20551;-77
2022/04/04 11:25:26;;;;;;;0.70;0.60;;;8.90;99.90;;;;;;5041382;28;20523;-77
2022/04/04 11:27:57;;;;;;;2.67;2.43;;;8.90;99.90;;;;;;5047756;28;20456;-76
2022/04/04 11:30:25;;;;;;;3.53;1.47;;;8.80;99.90;;;;;;5038958;28;20458;-75
2022/04/04 11:32:57;;;;;;;1.27;1.17;;;8.80;99.90;;;;;;5036483;28;20607;-76
2022/04/04 11:35:27;;;;;;;3.20;2.27;;;9.00;99.90;;;;;;5054489;28;21037;-76
2022/04/04 11:37:57;;;;;;;0.60;0.13;;;9.20;99.90;;;;;;5054778;28;20455;-76
2022/04/04 11:40:29;;;;;;;1.53;0.93;;;9.30;99.90;;;;;;5042805;28;20459;-77
2022/04/04 11:42:59;;;;;;;0.70;0.63;;;9.50;99.90;;;;;;5033665;28;20467;-76
2022/04/04 11:45:32;;;;;;;1.37;0.50;;;9.60;99.90;;;;;;5025021;28;20474;-78
2022/04/04 11:48:02;;;;;;;1.30;1.20;;;9.60;99.90;;;;;;5029790;28;20466;-76
2022/04/04 11:50:34;;;;;;;0.60;0.20;;;9.50;99.90;;;;;;5032656;28;20571;-76
2022/04/04 11:53:04;;;;;;;0.70;0.37;;;9.40;99.90;;;;;;5032963;28;20830;-76
2022/04/04 11:55:35;;;;;;;1.03;0.73;;;9.40;99.90;;;;;;5035597;28;20949;-77
2022/04/04 11:58:10;;;;;;;2.03;1.13;;;9.50;99.90;;;;;;5036054;28;20812;-75
2022/04/04 12:00:42;;;;;;;1.43;0.90;;;9.50;99.90;;;;;;5048096;28;21001;-78
2022/04/04 12:03:12;;;;;;;1.00;1.00;;;9.40;99.90;;;;;;5038119;28;20797;-77
2022/04/04 12:05:42;;;;;;;0.60;0.10;;;9.30;99.90;;;;;;5031185;28;20609;-77
2022/04/04 12:08:13;;;;;;;1.87;1.20;;;9.40;99.90;;;;;;5028170;28;20538;-76
2022/04/04 12:10:42;;;;;;;3.40;1.80;;;9.40;99.90;;;;;;5048299;28;20461;-76
2022/04/04 12:13:14;;;;;;;0.60;0.10;;;9.30;99.90;;;;;;5044110;28;20541;-77
2022/04/04 12:15:44;;;;;;;0.70;0.57;;;9.20;99.90;;;;;;5036920;28;20455;-76
2022/04/04 12:18:17;;;;;;;0.60;0.20;;;9.20;99.90;;;;;;5042072;28;20507;-75
2022/04/04 12:20:48;;;;;;;1.33;0.80;;;9.40;99.90;;;;;;5044202;28;20443;-76
2022/04/04 12:26:06;;;;;;;1.53;1.43;;;9.60;99.90;;;;;;5044338;28;20482;-74
2022/04/04 12:28:39;;;;;;;1.03;0.93;;;9.60;99.90;;;;;;5036852;28;20439;-76
2022/04/04 12:31:12;;;;;;;1.13;1.03;;;9.60;99.90;;;;;;5037212;28;20445;-76
2022/04/04 12:33:41;;;;;;;1.03;0.73;;;9.60;99.90;;;;;;5036764;28;20489;-76
2022/04/04 12:36:09;;;;;;;4.87;3.17;;;9.50;99.90;;;;;;5036398;28;20924;-78
2022/04/04 12:38:39;;;;;;;2.37;1.67;;;9.50;99.90;;;;;;5039759;28;20921;-75
2022/04/04 12:41:13;;;;;;;2.43;1.80;;;9.50;99.90;;;;;;5040213;28;20455;-76
2022/04/04 12:43:44;;;;;;;4.87;1.70;;;9.50;99.90;;;;;;5039011;28;20920;-76
2022/04/04 12:46:25;;;;;;;1.17;1.03;;;9.40;99.90;;;;;;5044963;28;20859;-77
2022/04/04 12:49:13;;;;;;;1.20;1.10;;;9.50;99.90;;;;;;5041948;28;20465;-75
2022/04/04 12:51:51;;;;;;;2.40;1.27;;;9.50;99.90;;;;;;5034777;28;20458;-76
2022/04/04 12:54:26;;;;;;;2.83;1.63;;;9.50;99.90;;;;;;5059402;28;20964;-78
2022/04/04 12:56:55;;;;;;;2.20;2.00;;;9.40;99.90;;;;;;5062070;28;20445;-75
2022/04/04 12:59:25;;;;;;;0.97;0.87;;;9.40;99.90;;;;;;5042624;28;20461;-75
2022/04/04 13:02:09;;;;;;;0.70;0.70;;;9.40;99.90;;;;;;5057250;28;20481;-78
2022/04/04 13:04:38;;;;;;;3.33;2.30;;;9.40;99.90;;;;;;5041632;28;20474;-77
2022/04/04 13:07:18;;;;;;;0.90;0.80;;;9.50;99.90;;;;;;5037773;28;20537;-77
2022/04/04 13:09:51;;;;;;;3.27;1.40;;;9.50;99.90;;;;;;5041741;28;20456;-77
2022/04/04 13:12:27;;;;;;;1.00;0.83;;;9.60;99.90;;;;;;5047155;28;20484;-76
2022/04/04 13:14:56;;;;;;;0.80;0.73;;;9.50;99.90;;;;;;5049710;28;20430;-77
2022/04/04 13:17:35;;;;;;;0.70;0.60;;;9.50;99.90;;;;;;5047773;28;20485;-77
2022/04/04 13:20:04;;;;;;;1.17;0.60;;;9.40;99.90;;;;;;5045154;28;20433;-76
2022/04/04 13:22:32;;;;;;;1.07;0.93;;;9.40;99.90;;;;;;5029387;28;20518;-76
2022/04/04 13:25:00;;;;;;;2.60;2.20;;;9.40;99.90;;;;;;5036520;28;20486;-77
2022/04/04 13:27:28;;;;;;;2.40;2.27;;;9.10;99.90;;;;;;5032112;28;20447;-78
2022/04/04 13:29:57;;;;;;;1.50;1.40;;;8.90;99.90;;;;;;5037798;28;20450;-78